Brownsville, TX (78521)

8:47 AM CDT on March 29, 2015 (GMT -0500)
Brownsville-South Padre I International | | Change Station
CLOSE
Current Station
Airport
Location: Brownsville,
Elevation: 20 ft
Nearby Weather Stations
Active Advisory: Wind Advisory

Elev 20 ft 25.91 °N, 97.42 °W | Updated 54 minutes ago

Clear
Clear
66 °F
Feels Like 66 °F
N
10
Wind Variable Wind from South

Today
High -- | Low -- °F
--% Chance of Precip.
Yesterday
High -- | Low -- °F
Precip. -- in
7:24 AM 7:45 PM
Waxing Gibbous, 71% visible
Pressure 30.10 in
Visibility 9.0 miles
Clouds Clear
Dew Point 63 °F
Humidity 90%
Rainfall 0.00 in
Snow Depth Not available.
UV 0 out of 12
Pollen 10.90 out of 12
Air Quality Not available.
Flu Activity Not available.
METAR KBRO 291253Z 17009KT 9SM CLR 19/17 A3011 RMK AO2 SLP193 T01890172

More Conditions Fewer Conditions

Pressure 30.10 in
Visibility 9.0 miles
Clouds Clear
Dew Point 63 °F
Humidity 90%
Rainfall 0.00 in
Snow Depth Not available.
UV 0 out of 12
Pollen 10.90 out of 12
Air Quality Not available.
Flu Activity Not available.
METAR KBRO 291253Z 17009KT 9SM CLR 19/17 A3011 RMK AO2 SLP193 T01890172

More Conditions Fewer Conditions

10-Day Weather Forecast

Almanac

Astronomy

Mar. 29, 2015 Rise Set
Actual Time
Civil Twilight
Nautical Twilight
Astronomical Twilight
Moon
Length of Visible Light
Length of Day
Tomorrow will be .
, % of the Moon is Illuminated

Today's Extremes

State Highs State Lows

Community

WunderPhotos

Upload Photos

1,809,234 photos uploaded!

WunderBlogs® & News

Nearby

Air Quality

  Air Quality AQ Index Pollutant
Not available.

Snow Depth

Station Depth Elevation

Earthquake Activity

City Distance Mag. Time & Date
Minimum magnitude displayed is 2.5.

Coastal Water Temperatures

Place Temperature

Stations

Nearby Weather Stations

Station Location Temp. Windchill Dew Point Humidity Wind Precip. Elev Updated Type
                   
Wind Advisory
Statement as of 4:01 AM CDT on March 29, 2015

... Wind Advisory in effect from noon today to 7 PM CDT this
evening...

The National Weather Service in Brownsville has issued a Wind
Advisory... which is in effect from noon today to 7 PM CDT this
evening.

* Timing... midday Sunday through early Sunday evening.

* Winds... south winds from 25 to 35 mph with brief gusts from 35
to 40 mph.

* Impacts... move light and moderate weight items... such as patio
furniture... empty trash cans... and portable basketball posts...
indoors. High profile or light weight vehicles may be difficult
to drive... especially on bridges or overpasses and in cross
winds.

Precautionary/preparedness actions...

A Wind Advisory is issued when sustained winds are forecast to be
30 to 39 mph for at least 2 hours... and or frequent gusts will
range between 40 and 57 mph.